createdAt,value
2016-10-18T04:40:49.098Z,12.12
2016-10-18T04:41:49.809Z,12.18
2016-10-18T04:42:50.501Z,12.03
2016-10-18T04:43:51.211Z,12.2
2016-10-18T04:44:51.897Z,12.09
2016-10-18T04:45:52.693Z,12.15
2016-10-18T04:46:53.390Z,12.15
2016-10-18T04:47:55.341Z,12.13
2016-10-18T04:48:56.810Z,12.12
2016-10-18T04:49:58.174Z,12.09
2016-10-18T04:50:59.584Z,12.12
2016-10-18T04:52:00.291Z,12.07
2016-10-18T04:53:01.013Z,12.13
2016-10-18T04:54:01.768Z,12.18
2016-10-18T04:55:02.500Z,12.18
2016-10-18T04:56:03.233Z,12.17
2016-10-18T04:57:03.940Z,12.21
2016-10-18T04:58:04.687Z,12.22
2016-10-18T04:59:05.473Z,12.25
2016-10-18T05:00:06.196Z,12.21
2016-10-18T05:01:06.922Z,12.2
2016-10-18T05:02:07.651Z,12.22
2016-10-18T05:03:08.352Z,12.24
2016-10-18T05:04:09.118Z,12.21
2016-10-18T05:05:09.925Z,12.25
2016-10-18T05:06:10.704Z,12.2
2016-10-18T05:07:11.469Z,12.29
2016-10-18T05:08:12.207Z,12.22
2016-10-18T05:09:12.911Z,12.31
2016-10-18T05:10:13.651Z,12.29
2016-10-18T05:11:14.476Z,12.29
2016-10-18T05:12:15.244Z,12.25
2016-10-18T05:13:15.989Z,12.27
2016-10-18T05:14:16.768Z,12.25
2016-10-18T05:15:17.563Z,12.36
2016-10-18T05:16:18.300Z,12.29
2016-10-18T05:17:19.017Z,12.35
2016-10-18T05:18:19.726Z,12.37
2016-10-18T05:19:20.424Z,12.37
2016-10-18T05:20:21.323Z,12.37
2016-10-18T05:21:22.073Z,12.37
2016-10-18T05:22:22.805Z,12.39
2016-10-18T05:23:23.574Z,12.35
2016-10-18T05:24:24.302Z,12.37
2016-10-18T05:25:25.122Z,12.31
2016-10-18T05:26:25.896Z,12.39
2016-10-18T05:27:26.609Z,12.42
2016-10-18T05:28:27.443Z,12.37
2016-10-18T05:29:28.147Z,12.42
2016-10-18T05:30:28.900Z,12.42
2016-10-18T05:31:29.620Z,12.36
2016-10-18T05:32:30.361Z,12.4
2016-10-18T05:33:31.305Z,12.42
2016-10-18T05:34:32.079Z,12.4
2016-10-18T05:35:32.809Z,12.42
2016-10-18T05:36:33.546Z,12.37
2016-10-18T05:37:34.272Z,12.42
2016-10-18T05:38:34.995Z,12.37
2016-10-18T05:39:35.720Z,12.37
2016-10-18T05:40:36.491Z,12.42
2016-10-18T05:41:37.290Z,12.4
2016-10-18T05:42:38.027Z,12.35
2016-10-18T05:43:38.776Z,12.4
2016-10-18T05:44:39.546Z,12.43
2016-10-18T05:45:40.270Z,12.4
2016-10-18T05:46:40.987Z,12.39
2016-10-18T05:47:41.731Z,12.37
2016-10-18T05:48:42.444Z,12.4
2016-10-18T05:49:43.202Z,12.42
2016-10-18T05:50:43.922Z,12.39
2016-10-18T05:51:44.659Z,12.37
2016-10-18T05:52:45.390Z,12.37
2016-10-18T05:53:46.136Z,12.35
2016-10-18T05:54:46.877Z,12.29
2016-10-18T05:55:47.629Z,12.29
2016-10-18T05:56:48.346Z,12.32
2016-10-18T05:57:49.088Z,12.28
2016-10-18T05:58:49.809Z,12.27
2016-10-18T05:59:50.542Z,12.24
2016-10-18T06:00:51.266Z,12.22
2016-10-18T06:01:51.966Z,12.24
2016-10-18T06:02:52.668Z,12.25
2016-10-18T06:03:53.436Z,12.24
2016-10-18T06:04:54.120Z,12.2
2016-10-18T06:05:54.864Z,12.17
2016-10-18T06:06:55.594Z,12.29
2016-10-18T06:07:56.336Z,12.22
2016-10-18T06:08:57.052Z,12.22
2016-10-18T06:09:57.756Z,12.22
